createdAt,value
2022-12-28T00:01:46.832Z,1.77
2022-12-28T00:04:17.582Z,1.98
2022-12-28T00:06:45.426Z,1.95
2022-12-28T00:09:13.190Z,1.48
2022-12-28T00:11:40.621Z,1.73
2022-12-28T00:14:08.004Z,2.08
2022-12-28T00:16:39.492Z,1.88
2022-12-28T00:19:13.776Z,1.42
2022-12-28T00:21:42.286Z,1.58
2022-12-28T00:24:21.752Z,1.55
2022-12-28T00:26:49.145Z,1.35
2022-12-28T00:29:17.229Z,1.40
2022-12-28T00:31:45.963Z,1.33
2022-12-28T00:34:13.341Z,1.05
2022-12-28T00:37:08.483Z,1.50
2022-12-28T00:39:29.606Z,1.73
2022-12-28T00:41:56.549Z,1.58
2022-12-28T00:44:23.418Z,1.55
2022-12-28T00:46:50.457Z,2.13
2022-12-28T00:49:18.611Z,1.95
2022-12-28T00:51:45.578Z,1.70
2022-12-28T00:54:12.531Z,2.17
2022-12-28T00:56:44.739Z,2.22
2022-12-28T00:59:12.048Z,1.63
2022-12-28T01:01:40.352Z,1.70
2022-12-28T01:04:07.463Z,1.58
2022-12-28T01:06:34.339Z,2.05
2022-12-28T01:09:01.620Z,1.73
2022-12-28T01:11:31.042Z,2.00
2022-12-28T01:14:01.309Z,2.25
2022-12-28T01:16:35.644Z,2.15
2022-12-28T01:19:06.453Z,1.60
2022-12-28T01:21:35.581Z,2.00
2022-12-28T01:24:05.935Z,1.80
2022-12-28T01:26:34.299Z,1.60
2022-12-28T01:29:01.781Z,2.00
2022-12-28T01:31:32.800Z,2.03
2022-12-28T01:34:00.392Z,1.40
2022-12-28T01:36:31.545Z,1.70
2022-12-28T01:39:02.632Z,1.88
2022-12-28T01:41:35.948Z,1.90
2022-12-28T01:44:02.993Z,2.10
2022-12-28T01:46:44.044Z,2.58
2022-12-28T01:49:22.506Z,1.92
2022-12-28T01:52:04.077Z,2.83
2022-12-28T01:54:46.447Z,3.95
2022-12-28T01:57:15.373Z,2.45
2022-12-28T01:59:48.264Z,2.30
2022-12-28T02:02:16.388Z,2.30
2022-12-28T02:04:46.901Z,2.47
2022-12-28T02:07:35.313Z,2.92
2022-12-28T02:10:42.537Z,2.28
2022-12-28T02:12:51.818Z,2.28
2022-12-28T02:15:23.043Z,2.53
2022-12-28T02:17:51.168Z,2.40
2022-12-28T02:20:19.032Z,3.08
2022-12-28T02:23:00.516Z,2.65
2022-12-28T02:25:44.372Z,2.67
2022-12-28T02:29:05.165Z,2.90
2022-12-28T02:32:16.984Z,2.50
2022-12-28T02:35:07.562Z,2.65
2022-12-28T02:37:56.015Z,2.90
2022-12-28T02:40:31.628Z,2.70
2022-12-28T02:43:00.891Z,3.17
2022-12-28T02:46:15.863Z,2.92
2022-12-28T02:49:05.768Z,3.58
2022-12-28T02:52:00.904Z,2.80
2022-12-28T02:55:15.768Z,3.50
2022-12-28T02:58:01.590Z,2.85
2022-12-28T03:00:53.721Z,3.20
2022-12-28T03:03:42.434Z,2.65
2022-12-28T03:07:05.924Z,3.03
2022-12-28T03:09:52.395Z,3.17
2022-12-28T03:12:34.764Z,3.38
2022-12-28T03:15:08.064Z,3.33
2022-12-28T03:17:58.754Z,3.25
2022-12-28T03:20:49.900Z,3.83
2022-12-28T03:23:42.257Z,3.55
2022-12-28T03:26:31.838Z,3.55
2022-12-28T03:29:23.261Z,3.03
2022-12-28T03:31:50.299Z,3.78
2022-12-28T03:34:17.948Z,3.35
2022-12-28T03:37:17.542Z,3.33
2022-12-28T03:40:02.102Z,2.70
2022-12-28T03:42:57.624Z,3.15
2022-12-28T03:46:12.352Z,3.17
2022-12-28T03:48:43.960Z,2.97
2022-12-28T03:51:16.752Z,3.50
2022-12-28T03:53:47.584Z,2.88
2022-12-28T03:56:25.217Z,3.10
2022-12-28T03:58:56.865Z,3.30
2022-12-28T04:01:31.361Z,3.38
2022-12-28T04:03:58.341Z,3.10
2022-12-28T04:06:26.686Z,2.95
2022-12-28T04:08:53.675Z,2.83
2022-12-28T04:11:21.647Z,3.42
2022-12-28T04:13:53.143Z,2.97
2022-12-28T04:16:21.054Z,2.53
2022-12-28T04:18:48.094Z,2.30
2022-12-28T04:21:16.068Z,3.15
2022-12-28T04:23:44.809Z,2.67
2022-12-28T04:26:21.055Z,2.35
2022-12-28T04:28:50.841Z,2.13
2022-12-28T04:31:30.537Z,2.55
2022-12-28T04:34:02.925Z,2.83
2022-12-28T04:36:33.661Z,2.50
2022-12-28T04:39:02.506Z,2.20
2022-12-28T04:41:29.478Z,1.92
2022-12-28T04:43:56.743Z,2.35
2022-12-28T04:46:24.949Z,2.55
2022-12-28T04:48:52.572Z,2.38
2022-12-28T04:51:25.953Z,2.40
2022-12-28T04:53:54.827Z,2.15
2022-12-28T04:56:24.255Z,2.45
2022-12-28T04:59:00.893Z,3.00
2022-12-28T05:01:28.080Z,2.45
2022-12-28T05:03:59.445Z,2.33
2022-12-28T05:06:28.049Z,2.33
2022-12-28T05:08:57.357Z,2.78
2022-12-28T05:11:27.961Z,1.95
2022-12-28T05:13:56.243Z,2.42
2022-12-28T05:16:25.908Z,2.00
2022-12-28T05:18:56.991Z,2.10
2022-12-28T05:21:28.179Z,2.30
2022-12-28T05:23:55.997Z,2.58
2022-12-28T05:26:26.652Z,2.20
2022-12-28T05:28:55.153Z,2.72
2022-12-28T05:31:23.601Z,2.28
2022-12-28T05:33:51.199Z,2.53
2022-12-28T05:36:27.295Z,2.53
2022-12-28T05:38:55.976Z,2.00
2022-12-28T05:41:26.702Z,2.35
2022-12-28T05:43:55.964Z,2.60
2022-12-28T05:46:35.412Z,2.75
2022-12-28T05:49:02.788Z,2.75
2022-12-28T05:51:32.482Z,2.60
2022-12-28T05:54:01.462Z,2.60
2022-12-28T05:56:31.181Z,2.50
2022-12-28T05:59:01.054Z,2.80
2022-12-28T06:01:32.680Z,2.50
2022-12-28T06:04:07.878Z,2.92
2022-12-28T06:06:36.032Z,2.85
2022-12-28T06:09:04.163Z,2.47
2022-12-28T06:11:32.174Z,2.17
2022-12-28T06:13:59.725Z,2.70
2022-12-28T06:16:30.469Z,2.40
2022-12-28T06:18:58.409Z,2.30
2022-12-28T06:21:29.277Z,2.20
2022-12-28T06:23:58.965Z,2.65
2022-12-28T06:26:29.545Z,2.33
2022-12-28T06:28:57.395Z,2.55
2022-12-28T06:31:30.926Z,2.20
2022-12-28T06:34:00.498Z,2.08
2022-12-28T06:36:35.032Z,1.95
2022-12-28T06:39:05.196Z,2.30
2022-12-28T06:41:32.536Z,1.75
2022-12-28T06:44:00.447Z,2.22
2022-12-28T06:46:30.210Z,1.85
2022-12-28T06:48:57.779Z,1.60
2022-12-28T06:51:28.788Z,2.30
2022-12-28T06:53:56.432Z,1.70
2022-12-28T06:56:30.915Z,2.63
2022-12-28T06:59:02.752Z,2.70
2022-12-28T07:01:34.897Z,1.75
2022-12-28T07:04:04.904Z,2.20
2022-12-28T07:06:41.213Z,1.80
2022-12-28T07:09:13.587Z,1.73
2022-12-28T07:11:41.748Z,1.85
2022-12-28T07:14:08.871Z,1.80
2022-12-28T07:16:48.006Z,2.08
2022-12-28T07:19:16.279Z,2.05
2022-12-28T07:21:43.218Z,2.05
2022-12-28T07:24:10.544Z,2.00
2022-12-28T07:26:38.460Z,2.17
2022-12-28T07:29:07.012Z,1.92
2022-12-28T07:31:44.886Z,2.15
2022-12-28T07:34:16.625Z,2.00
2022-12-28T07:36:43.881Z,1.67
2022-12-28T07:39:10.916Z,2.25
2022-12-28T07:41:37.897Z,1.63
2022-12-28T07:44:06.615Z,1.67
2022-12-28T07:46:36.380Z,1.55
2022-12-28T07:49:03.683Z,1.60
2022-12-28T07:51:36.350Z,1.92
2022-12-28T07:54:04.808Z,1.58
2022-12-28T07:59:02.717Z,1.92
2022-12-28T08:01:33.656Z,3.03
2022-12-28T08:04:05.348Z,2.13
2022-12-28T08:06:37.449Z,1.83
2022-12-28T08:09:05.986Z,1.95
2022-12-28T08:11:36.703Z,1.73
2022-12-28T08:14:04.447Z,1.67
2022-12-28T08:16:36.075Z,1.75
2022-12-28T08:19:03.076Z,1.60
2022-12-28T08:21:34.060Z,1.35
2022-12-28T08:24:02.413Z,1.48
2022-12-28T08:26:36.719Z,1.63
2022-12-28T08:29:08.403Z,1.50
2022-12-28T08:31:39.645Z,1.52
2022-12-28T08:34:11.651Z,1.73
2022-12-28T08:36:38.562Z,1.45
2022-12-28T08:39:06.191Z,1.80
2022-12-28T08:41:33.238Z,1.95
2022-12-28T08:44:00.489Z,1.42
2022-12-28T08:46:36.882Z,1.30
2022-12-28T08:49:05.845Z,1.80
2022-12-28T08:51:41.153Z,1.30
2022-12-28T08:56:39.326Z,1.60
2022-12-28T08:59:07.447Z,1.60
2022-12-28T09:01:43.740Z,1.52
2022-12-28T09:04:21.786Z,1.80
2022-12-28T09:06:50.033Z,1.88
2022-12-28T09:09:19.805Z,1.73
2022-12-28T09:11:47.974Z,1.90
2022-12-28T09:14:22.759Z,2.00
2022-12-28T09:16:53.044Z,1.80
2022-12-28T09:19:20.213Z,1.70
2022-12-28T09:21:49.156Z,2.10
2022-12-28T09:24:16.612Z,2.20
2022-12-28T09:26:43.974Z,2.00
2022-12-28T09:29:13.940Z,1.58
2022-12-28T09:31:41.673Z,1.70
2022-12-28T09:37:00.415Z,1.80
2022-12-28T09:39:27.888Z,2.10
2022-12-28T09:42:00.102Z,2.65
2022-12-28T09:44:55.911Z,1.88
2022-12-28T09:47:29.191Z,2.20
2022-12-28T09:50:25.030Z,2.40
2022-12-28T09:53:05.713Z,3.05
2022-12-28T09:55:39.702Z,2.47
2022-12-28T09:58:15.012Z,3.13
2022-12-28T10:00:50.406Z,3.20
2022-12-28T10:03:37.803Z,3.25
2022-12-28T10:06:24.151Z,3.15
2022-12-28T10:08:58.693Z,2.97
2022-12-28T10:11:38.660Z,3.00
2022-12-28T10:14:24.411Z,2.90
2022-12-28T10:16:51.571Z,2.92
2022-12-28T10:19:24.236Z,3.08
2022-12-28T10:22:08.727Z,2.75
2022-12-28T10:24:36.406Z,3.28
2022-12-28T10:27:12.461Z,2.50
2022-12-28T10:29:41.690Z,2.92
2022-12-28T10:32:11.985Z,2.70
2022-12-28T10:34:59.037Z,3.28
2022-12-28T10:37:30.747Z,2.30
2022-12-28T10:40:06.525Z,2.78
2022-12-28T10:42:46.692Z,2.60
2022-12-28T10:45:30.333Z,3.40
2022-12-28T10:47:57.555Z,2.35
2022-12-28T10:50:46.696Z,2.17
2022-12-28T10:53:26.139Z,1.90
2022-12-28T10:56:33.478Z,2.40
2022-12-28T10:59:12.773Z,8.00
2022-12-28T11:01:42.629Z,4.00
2022-12-28T11:04:26.678Z,3.28
2022-12-28T11:07:01.884Z,2.33
2022-12-28T11:09:44.175Z,4.30
2022-12-28T11:12:26.613Z,9.25
2022-12-28T11:14:54.348Z,4.53
2022-12-28T11:17:33.935Z,9.57
2022-12-28T11:20:17.110Z,7.78
2022-12-28T11:22:45.579Z,3.15
2022-12-28T11:25:34.379Z,7.70
2022-12-28T11:28:12.180Z,4.95
2022-12-28T11:30:39.043Z,3.30
2022-12-28T11:33:10.128Z,4.40
2022-12-28T11:35:40.376Z,2.60
2022-12-28T11:38:33.134Z,2.13
2022-12-28T11:41:00.082Z,4.05
2022-12-28T11:43:30.221Z,2.13
2022-12-28T11:46:03.184Z,1.55
2022-12-28T11:48:42.140Z,3.35
2022-12-28T11:51:22.430Z,1.40
2022-12-28T11:54:05.154Z,3.25
2022-12-28T11:56:43.897Z,3.40
2022-12-28T11:59:33.089Z,3.17
2022-12-28T12:02:22.021Z,2.90
2022-12-28T12:04:49.122Z,2.58
2022-12-28T12:07:24.660Z,2.10
2022-12-28T12:10:28.361Z,2.30
2022-12-28T12:12:55.976Z,1.52
2022-12-28T12:16:06.941Z,2.05
2022-12-28T12:18:54.843Z,2.38
2022-12-28T12:21:32.216Z,2.13
2022-12-28T12:24:26.987Z,2.40
2022-12-28T12:27:07.296Z,1.83
2022-12-28T12:29:45.766Z,1.70
2022-12-28T12:32:23.634Z,1.77
2022-12-28T12:34:54.824Z,1.65
2022-12-28T12:37:36.056Z,1.80
2022-12-28T12:40:30.910Z,2.67
2022-12-28T12:43:25.678Z,2.08
2022-12-28T12:46:22.030Z,1.88
2022-12-28T12:49:39.038Z,2.03
2022-12-28T12:52:42.764Z,1.15
2022-12-28T12:55:28.271Z,1.33
2022-12-28T12:58:25.834Z,1.30
2022-12-28T13:01:14.846Z,0.88
2022-12-28T13:03:44.373Z,2.47
2022-12-28T13:06:17.899Z,3.13
2022-12-28T13:09:03.306Z,2.67
2022-12-28T13:11:38.472Z,2.85
2022-12-28T13:14:06.356Z,2.80
2022-12-28T13:16:33.643Z,3.08
2022-12-28T13:19:04.331Z,3.28
2022-12-28T13:21:42.962Z,3.40
2022-12-28T13:24:34.451Z,2.40
2022-12-28T13:27:03.306Z,3.28
2022-12-28T13:29:39.365Z,5.88
2022-12-28T13:32:06.439Z,4.57
2022-12-28T13:34:38.517Z,4.60
2022-12-28T13:37:16.462Z,3.35
2022-12-28T13:40:16.195Z,4.32
2022-12-28T13:43:07.368Z,3.65
2022-12-28T13:45:49.348Z,2.90
2022-12-28T13:48:30.810Z,3.90
2022-12-28T13:50:58.505Z,3.58
2022-12-28T13:53:31.759Z,3.63
2022-12-28T13:56:04.492Z,3.63
2022-12-28T13:58:41.296Z,3.35
2022-12-28T14:01:18.465Z,3.08
2022-12-28T14:03:46.745Z,4.22
2022-12-28T14:06:18.804Z,3.88
2022-12-28T14:08:47.318Z,3.28
2022-12-28T14:11:16.046Z,3.20
2022-12-28T14:13:43.162Z,3.35
2022-12-28T14:16:10.573Z,3.42
2022-12-28T14:18:38.806Z,3.03
2022-12-28T14:21:07.138Z,3.35
2022-12-28T14:23:37.881Z,3.10
2022-12-28T14:26:25.192Z,3.20
2022-12-28T14:28:57.399Z,3.38
2022-12-28T14:31:29.963Z,3.10
2022-12-28T14:34:03.831Z,2.95
2022-12-28T14:36:49.480Z,2.70
2022-12-28T14:39:43.714Z,2.30
2022-12-28T14:42:24.200Z,1.45
2022-12-28T14:47:47.971Z,1.70
2022-12-28T14:50:23.416Z,1.30
2022-12-28T14:52:51.574Z,1.50
2022-12-28T14:55:58.037Z,1.10
2022-12-28T14:58:50.772Z,1.20
2022-12-28T15:01:21.185Z,1.50
2022-12-28T15:03:57.452Z,1.33
2022-12-28T15:06:30.271Z,2.00
2022-12-28T15:08:59.747Z,2.58
2022-12-28T15:11:31.263Z,3.60
2022-12-28T15:13:58.340Z,3.35
2022-12-28T15:16:25.474Z,3.55
2022-12-28T15:18:52.973Z,3.58
2022-12-28T15:21:23.751Z,3.53
2022-12-28T15:23:55.733Z,4.18
2022-12-28T15:26:24.506Z,3.80
2022-12-28T15:28:51.626Z,3.65
2022-12-28T15:31:21.977Z,3.80
2022-12-28T15:33:49.363Z,3.47
2022-12-28T15:36:19.443Z,3.85
2022-12-28T15:38:47.987Z,4.22
2022-12-28T15:41:35.660Z,3.33
2022-12-28T15:44:05.791Z,4.20
2022-12-28T15:46:33.215Z,3.47
2022-12-28T15:49:02.667Z,3.55
2022-12-28T15:51:29.698Z,3.10
2022-12-28T15:53:56.609Z,3.47
2022-12-28T15:56:33.322Z,4.18
2022-12-28T15:59:04.011Z,4.20
2022-12-28T16:01:32.578Z,3.72
2022-12-28T16:04:02.243Z,2.92
2022-12-28T16:06:34.190Z,4.18
2022-12-28T16:09:02.966Z,3.20
2022-12-28T16:11:30.609Z,3.53
2022-12-28T16:14:01.012Z,3.85
2022-12-28T16:16:35.023Z,4.45
2022-12-28T16:19:03.596Z,4.32
2022-12-28T16:21:30.868Z,4.35
2022-12-28T16:24:00.326Z,3.85
2022-12-28T16:26:28.358Z,3.80
2022-12-28T16:28:55.600Z,4.22
2022-12-28T16:31:31.503Z,4.05
2022-12-28T16:34:03.022Z,4.70
2022-12-28T16:36:30.166Z,4.05
2022-12-28T16:38:57.905Z,3.28
2022-12-28T16:41:28.736Z,3.25
2022-12-28T16:44:07.077Z,3.97
2022-12-28T16:46:33.949Z,4.25
2022-12-28T16:49:02.410Z,3.78
2022-12-28T16:51:32.392Z,3.90
2022-12-28T16:53:59.442Z,3.60
2022-12-28T16:56:26.482Z,3.20
2022-12-28T16:58:58.502Z,4.80
2022-12-28T17:01:26.235Z,5.47
2022-12-28T17:03:55.353Z,4.60
2022-12-28T17:06:25.646Z,4.28
2022-12-28T17:08:52.563Z,4.88
2022-12-28T17:11:19.535Z,4.68
2022-12-28T17:13:46.437Z,4.07
2022-12-28T17:16:13.609Z,3.30
2022-12-28T17:18:40.824Z,4.18
2022-12-28T17:21:10.114Z,3.50
2022-12-28T17:23:39.515Z,4.50
2022-12-28T17:26:07.417Z,3.65
2022-12-28T17:28:34.514Z,3.75
2022-12-28T17:31:12.276Z,4.22
2022-12-28T17:33:40.288Z,4.55
2022-12-28T17:36:08.953Z,4.03
2022-12-28T17:38:36.358Z,4.20
2022-12-28T17:41:13.833Z,4.32
2022-12-28T17:43:48.885Z,4.32
2022-12-28T17:46:16.502Z,3.97
2022-12-28T17:48:43.909Z,4.30
2022-12-28T17:51:11.650Z,3.30
2022-12-28T17:53:49.028Z,3.05
2022-12-28T17:56:16.480Z,3.50
2022-12-28T17:58:45.026Z,3.83
2022-12-28T18:01:13.350Z,3.70
2022-12-28T18:03:43.091Z,3.70
2022-12-28T18:06:10.372Z,3.78
2022-12-28T18:08:37.326Z,3.40
2022-12-28T18:11:04.434Z,3.72
2022-12-28T18:13:31.333Z,4.57
2022-12-28T18:15:58.221Z,4.50
2022-12-28T18:18:25.175Z,3.42
2022-12-28T18:21:05.852Z,2.72
2022-12-28T18:23:34.257Z,3.40
2022-12-28T18:26:07.681Z,2.83
2022-12-28T18:28:35.763Z,2.50
2022-12-28T18:31:04.581Z,3.45
2022-12-28T18:33:33.369Z,2.72
2022-12-28T18:36:05.106Z,3.08
2022-12-28T18:38:33.743Z,3.25
2022-12-28T18:41:01.229Z,2.70
2022-12-28T18:43:28.788Z,3.38
2022-12-28T18:46:00.135Z,3.88
2022-12-28T18:48:28.422Z,3.25
2022-12-28T18:51:08.268Z,3.50
2022-12-28T18:53:36.512Z,5.45
2022-12-28T18:56:12.384Z,5.25
2022-12-28T18:58:41.747Z,5.28
2022-12-28T19:04:08.114Z,5.00
2022-12-28T19:06:36.654Z,4.47
2022-12-28T19:09:06.016Z,4.38
2022-12-28T19:11:33.445Z,3.92
2022-12-28T19:14:07.036Z,4.00
2022-12-28T19:16:34.951Z,3.58
2022-12-28T19:19:02.488Z,3.55
2022-12-28T19:21:47.541Z,3.60
2022-12-28T19:24:19.338Z,3.70
2022-12-28T19:26:47.560Z,3.72
2022-12-28T19:29:16.015Z,3.80
2022-12-28T19:31:43.429Z,3.35
2022-12-28T19:34:10.431Z,3.50
2022-12-28T19:36:37.531Z,2.58
2022-12-28T19:39:04.511Z,3.38
2022-12-28T19:41:31.560Z,3.28
2022-12-28T19:43:58.538Z,2.58
2022-12-28T19:46:32.614Z,3.25
2022-12-28T19:49:02.512Z,3.28
2022-12-28T19:51:32.393Z,3.45
2022-12-28T19:54:01.463Z,2.83
2022-12-28T19:56:29.096Z,2.97
2022-12-28T19:59:02.990Z,3.50
2022-12-28T20:01:30.897Z,3.70
2022-12-28T20:03:59.259Z,3.38
2022-12-28T20:06:29.498Z,3.47
2022-12-28T20:09:01.471Z,3.35
2022-12-28T20:11:29.739Z,3.20
2022-12-28T20:14:00.803Z,2.65
2022-12-28T20:16:30.922Z,3.05
2022-12-28T20:18:59.323Z,3.20
2022-12-28T20:21:26.757Z,3.25
2022-12-28T20:23:54.913Z,2.72
2022-12-28T20:26:25.052Z,2.90
2022-12-28T20:28:52.311Z,3.03
2022-12-28T20:31:19.706Z,3.13
2022-12-28T20:33:47.210Z,3.22
2022-12-28T20:36:18.625Z,3.30
2022-12-28T20:38:46.686Z,3.40
2022-12-28T20:41:59.128Z,3.33
2022-12-28T20:44:31.290Z,3.10
2022-12-28T20:46:59.896Z,3.58
2022-12-28T20:49:28.131Z,3.78
2022-12-28T20:51:55.698Z,3.03
2022-12-28T20:54:23.475Z,3.38
2022-12-28T20:56:55.386Z,3.42
2022-12-28T20:59:25.155Z,2.90
2022-12-28T21:01:53.243Z,3.28
2022-12-28T21:04:20.614Z,2.90
2022-12-28T21:06:47.571Z,2.80
2022-12-28T21:09:14.723Z,2.72
2022-12-28T21:11:41.656Z,2.78
2022-12-28T21:14:08.594Z,2.63
2022-12-28T21:16:35.593Z,2.72
2022-12-28T21:19:02.533Z,2.50
2022-12-28T21:21:29.509Z,2.83
2022-12-28T21:23:56.489Z,2.92
2022-12-28T21:26:23.462Z,3.42
2022-12-28T21:28:50.482Z,3.00
2022-12-28T21:31:17.500Z,3.55
2022-12-28T21:33:45.069Z,3.20
2022-12-28T21:36:17.353Z,3.08
2022-12-28T21:38:47.136Z,3.60
2022-12-28T21:41:40.305Z,2.80
2022-12-28T21:44:10.742Z,3.90
2022-12-28T21:46:38.314Z,3.53
2022-12-28T21:49:06.813Z,3.90
2022-12-28T21:51:35.232Z,3.63
2022-12-28T21:54:15.893Z,3.65
2022-12-28T21:56:46.188Z,3.97
2022-12-28T21:59:13.796Z,4.07
2022-12-28T22:02:01.221Z,3.90
2022-12-28T22:04:47.266Z,4.57
2022-12-28T22:07:17.336Z,3.72
2022-12-28T22:10:03.765Z,4.03
2022-12-28T22:12:37.468Z,3.80
2022-12-28T22:15:49.249Z,4.15
2022-12-28T22:18:30.025Z,3.35
2022-12-28T22:21:03.226Z,3.60
2022-12-28T22:23:34.495Z,3.83
2022-12-28T22:26:02.537Z,3.90
2022-12-28T22:28:29.794Z,3.17
2022-12-28T22:30:56.804Z,2.72
2022-12-28T22:33:23.664Z,3.00
2022-12-28T22:35:50.618Z,2.72
2022-12-28T22:38:17.476Z,3.15
2022-12-28T22:40:44.307Z,2.90
2022-12-28T22:43:11.159Z,2.95
2022-12-28T22:45:38.083Z,2.88
2022-12-28T22:48:05.465Z,2.45
2022-12-28T22:50:32.401Z,2.72
2022-12-28T22:52:59.390Z,1.98
2022-12-28T22:55:26.396Z,2.20
2022-12-28T22:57:53.240Z,2.10
2022-12-28T23:00:20.178Z,2.20
2022-12-28T23:02:48.951Z,1.60
2022-12-28T23:05:15.940Z,1.80
2022-12-28T23:07:42.890Z,1.90
2022-12-28T23:10:10.383Z,2.08
2022-12-28T23:12:37.829Z,2.05
2022-12-28T23:15:19.551Z,2.08
2022-12-28T23:17:49.409Z,1.90
2022-12-28T23:20:35.835Z,2.15
2022-12-28T23:23:21.452Z,1.70
2022-12-28T23:28:36.079Z,1.75
2022-12-28T23:31:03.407Z,1.95
2022-12-28T23:33:30.351Z,2.00
2022-12-28T23:36:03.559Z,1.70
2022-12-28T23:38:32.679Z,2.00
2022-12-28T23:41:18.253Z,1.80
2022-12-28T23:46:11.897Z,1.83
2022-12-28T23:48:38.817Z,1.60
2022-12-28T23:51:08.305Z,1.70
2022-12-28T23:53:36.104Z,1.50
2022-12-28T23:56:02.997Z,1.83
2022-12-28T23:58:29.905Z,2.20
